VA95 weather

CLOSED Spring Valley Airport
Powhatan, Virginia, United States

Public forecast

Using degrees Fahrenheit for public forecast. Weather courtesy of forecast.io.

Closest aviation weather report (METAR) to Spring Valley Airport

Closest report is Chesterfield County Airport, 17.4 nm (32.2 km) SE. Retrieved 2020/04/09 03:56 UTC (20 minutes ago):

KFCI 090356Z AUTO 00000KT 10SM CLR 16/13 A2961 RMK AO2 SLP035 T01610128 402670139

Closest aviation forecast (TAF) to Spring Valley Airport

Closest forecast is Richmond International Airport, 23.5 nm (43.6 km) ESE. Retrieved 2020-04-09 00:22 UTC (4 hours ago):

TAF KRIC 082320Z 0900/0924 29005KT P6SM SCT100 BKN250 FM091000 17004KT P6SM BKN050 FM091200 20005KT P6SM VCSH BKN050 OVC100 FM091500 24013G23KT P6SM SCT120 FM091800 28018G32KT P6SM FEW050